Time;durP1;ratioP1;P1;durP2;ratioP2;P2;SDS_P1;SDS_P2;PMS_P1;PMS_P2;Temp;Humidity;BMP_temperature;BMP_pressure;BME280_temperature;BME280_humidity;BME280_pressure;Samples;Min_cycle;Max_cycle;Signal;HPM_P1;HPM_P2
2022/02/15 00:01:33;;;;;;;3.67;3.47;;;;;;;4.59;100.00;99699.38;5003040;28;20052;-80
2022/02/15 00:04:07;;;;;;;2.95;2.75;;;;;;;4.58;100.00;99705.03;4997518;28;20062;-80
2022/02/15 00:06:40;;;;;;;3.10;2.90;;;;;;;4.57;100.00;99690.75;5008375;28;20371;-80
2022/02/15 00:09:14;;;;;;;3.08;2.88;;;;;;;4.57;100.00;99692.63;5004392;28;20062;-79
2022/02/15 00:11:48;;;;;;;3.40;3.20;;;;;;;4.61;100.00;99699.13;5000881;28;20058;-80
2022/02/15 00:14:22;;;;;;;2.97;2.78;;;;;;;4.61;100.00;99693.72;4999701;28;20062;-80
2022/02/15 00:16:55;;;;;;;2.90;2.70;;;;;;;4.56;100.00;99702.63;5002678;28;20042;-80
2022/02/15 00:19:28;;;;;;;3.25;3.05;;;;;;;4.50;100.00;99698.28;5003892;28;20058;-79
2022/02/15 00:22:01;;;;;;;3.00;2.80;;;;;;;4.51;100.00;99693.69;4995873;28;20053;-79
2022/02/15 00:24:29;;;;;;;3.28;3.08;;;;;;;4.59;100.00;99694.00;4997170;28;20050;-79
2022/02/15 00:27:04;;;;;;;3.05;2.85;;;;;;;4.62;100.00;99695.34;5004680;28;20050;-78
2022/02/15 00:29:37;;;;;;;3.15;2.95;;;;;;;4.53;100.00;99692.38;4998795;28;20062;-80
2022/02/15 00:32:10;;;;;;;2.70;2.50;;;;;;;4.56;100.00;99699.91;5004407;28;20387;-78
2022/02/15 00:34:39;;;;;;;3.03;2.83;;;;;;;4.60;100.00;99690.22;5004377;28;20054;-80
2022/02/15 00:37:07;;;;;;;2.83;2.63;;;;;;;4.60;100.00;99703.72;5000984;28;20502;-79
2022/02/15 00:39:40;;;;;;;2.80;2.60;;;;;;;4.60;100.00;99692.13;4994519;28;20062;-80
2022/02/15 00:42:10;;;;;;;2.40;2.30;;;;;;;4.58;100.00;99697.78;5005337;28;20060;-80
2022/02/15 00:44:38;;;;;;;2.88;2.67;;;;;;;4.51;100.00;99691.00;4999420;28;20050;-79
2022/02/15 00:47:13;;;;;;;2.70;2.50;;;;;;;4.53;100.00;99694.22;5001309;28;20054;-80
2022/02/15 00:49:46;;;;;;;2.85;2.65;;;;;;;4.62;100.00;99703.44;5004112;28;20477;-79
2022/02/15 00:52:14;;;;;;;2.78;2.58;;;;;;;4.56;100.00;99704.50;5003416;28;20475;-79
2022/02/15 00:54:47;;;;;;;2.92;2.72;;;;;;;4.58;100.00;99700.47;4999083;28;20049;-80
2022/02/15 00:57:22;;;;;;;2.55;2.42;;;;;;;4.63;100.00;99706.94;4998591;28;20030;-80
2022/02/15 00:59:51;;;;;;;2.85;2.65;;;;;;;4.63;100.00;99713.16;5004465;28;20454;-80
2022/02/15 01:02:24;;;;;;;2.30;2.20;;;;;;;4.64;100.00;99713.94;5004875;28;20056;-80
2022/02/15 01:04:52;;;;;;;2.40;2.30;;;;;;;4.68;100.00;99709.66;5004756;28;20057;-80
2022/02/15 01:07:20;;;;;;;2.42;2.33;;;;;;;4.74;100.00;99708.59;5006913;28;20080;-80
2022/02/15 01:09:53;;;;;;;2.55;2.45;;;;;;;4.79;100.00;99705.09;5002214;28;20057;-80
2022/02/15 01:12:28;;;;;;;2.47;2.38;;;;;;;4.91;100.00;99708.38;5009131;28;20508;-79
2022/02/15 01:15:02;;;;;;;2.80;2.60;;;;;;;4.89;100.00;99707.84;4999658;28;20054;-79
2022/02/15 01:17:35;;;;;;;2.30;2.20;;;;;;;5.09;100.00;99709.75;4998529;28;20053;-80
2022/02/15 01:20:09;;;;;;;2.40;2.30;;;;;;;5.05;100.00;99714.88;5004807;28;20054;-80
2022/02/15 01:22:42;;;;;;;2.05;1.95;;;;;;;5.10;100.00;99714.09;5004144;28;20096;-80
2022/02/15 01:25:15;;;;;;;2.50;2.40;;;;;;;5.08;100.00;99713.53;5004677;28;20081;-81
2022/02/15 01:27:50;;;;;;;2.33;2.22;;;;;;;5.17;100.00;99686.88;4999049;28;20486;-80
2022/02/15 01:30:23;;;;;;;2.30;2.20;;;;;;;5.19;100.00;99703.56;4995197;28;20046;-80
2022/02/15 01:32:56;;;;;;;2.08;1.98;;;;;;;5.26;100.00;99704.94;4999985;28;20049;-80
2022/02/15 01:35:25;;;;;;;2.10;2.00;;;;;;;5.24;100.00;99703.59;5007600;28;20056;-79
2022/02/15 01:37:59;;;;;;;1.92;1.83;;;;;;;5.23;100.00;99708.19;5006922;28;20049;-80
2022/02/15 01:40:32;;;;;;;2.00;1.90;;;;;;;5.31;100.00;99717.63;4999821;28;20045;-80
2022/02/15 01:43:07;;;;;;;1.90;1.80;;;;;;;5.27;100.00;99708.44;5004950;28;20064;-80
2022/02/15 01:45:40;;;;;;;2.13;2.03;;;;;;;5.45;100.00;99717.88;5006033;28;20033;-80
2022/02/15 01:48:14;;;;;;;1.98;1.88;;;;;;;5.40;100.00;99720.59;5000925;28;20441;-80
2022/02/15 01:50:48;;;;;;;1.90;1.80;;;;;;;5.29;100.00;99719.78;5001658;28;20061;-80
2022/02/15 01:53:16;;;;;;;1.67;1.58;;;;;;;5.36;100.00;99719.50;5005790;28;20061;-80
2022/02/15 01:55:49;;;;;;;1.90;1.80;;;;;;;5.28;100.00;99696.56;5003740;28;20073;-80
2022/02/15 01:58:19;;;;;;;1.90;1.80;;;;;;;5.35;100.00;99704.41;5003630;28;20054;-81
2022/02/15 02:00:53;;;;;;;1.65;1.55;;;;;;;5.32;100.00;99699.53;4984823;28;20042;-79
2022/02/15 02:03:37;;;;;;;1.70;1.60;;;;;;;5.23;100.00;99689.31;4996963;28;20054;-81
2022/02/15 02:06:05;;;;;;;1.63;1.52;;;;;;;5.28;100.00;99697.38;5004020;28;20054;-81
2022/02/15 02:08:38;;;;;;;1.83;1.73;;;;;;;5.24;100.00;99695.50;4998339;28;20050;-80
2022/02/15 02:11:11;;;;;;;1.60;1.50;;;;;;;5.27;100.00;99701.16;5002199;28;20077;-80
2022/02/15 02:13:49;;;;;;;2.10;2.00;;;;;;;5.27;100.00;99698.47;5001211;28;20049;-80
2022/02/15 02:16:32;;;;;;;1.73;1.63;;;;;;;5.30;100.00;99699.00;5004386;28;20049;-80
2022/02/15 02:19:07;;;;;;;1.70;1.60;;;;;;;5.36;100.00;99697.91;5003594;28;20057;-79
2022/02/15 02:21:42;;;;;;;1.70;1.60;;;;;;;5.18;100.00;99688.47;5001580;28;20049;-80
2022/02/15 02:24:13;;;;;;;1.70;1.60;;;;;;;5.32;100.00;99691.44;5003255;28;20045;-80
2022/02/15 02:26:50;;;;;;;1.80;1.70;;;;;;;5.31;100.00;99692.53;4998652;28;20053;-80
2022/02/15 02:29:18;;;;;;;1.58;1.48;;;;;;;5.38;100.00;99698.47;5002719;28;20521;-80
2022/02/15 02:31:51;;;;;;;1.67;1.58;;;;;;;5.34;100.00;99682.00;5000622;28;20049;-81
2022/02/15 02:34:27;;;;;;;1.60;1.50;;;;;;;5.33;100.00;99695.75;4993822;28;20058;-81
2022/02/15 02:37:02;;;;;;;1.60;1.50;;;;;;;5.31;100.00;99693.34;5005884;28;20046;-80
2022/02/15 02:39:30;;;;;;;1.60;1.50;;;;;;;5.19;100.00;99688.22;4997508;28;20056;-80
2022/02/15 02:42:04;;;;;;;1.60;1.50;;;;;;;5.20;100.00;99706.00;4998395;28;20067;-80
2022/02/15 02:44:33;;;;;;;1.50;1.40;;;;;;;5.18;100.00;99691.16;5015768;28;20053;-81
2022/02/15 02:47:01;;;;;;;1.55;1.45;;;;;;;5.11;100.00;99689.53;5002534;28;20076;-80
2022/02/15 02:49:35;;;;;;;1.60;1.50;;;;;;;5.22;100.00;99706.56;5021448;28;20053;-80
2022/02/15 02:52:07;;;;;;;1.60;1.50;;;;;;;5.21;100.00;99704.94;5002411;28;20069;-80
2022/02/15 02:54:41;;;;;;;;;;;;;;;5.24;100.00;99708.97;5007242;28;20514;-80
2022/02/15 02:57:12;;;;;;;1.60;1.50;;;;;;;5.28;100.00;99708.16;5003572;28;19932;-80
2022/02/15 02:59:47;;;;;;;1.70;1.60;;;;;;;5.28;100.00;99713.56;5004359;28;20048;-80
2022/02/15 03:02:27;;;;;;;1.58;1.48;;;;;;;5.30;100.00;99718.69;5000412;28;20422;-81
2022/02/15 03:05:01;;;;;;;1.60;1.50;;;;;;;5.33;100.00;99718.16;5003893;28;20053;-81
2022/02/15 03:07:30;;;;;;;1.63;1.52;;;;;;;5.35;100.00;99726.78;4998509;28;20054;-80
2022/02/15 03:10:04;;;;;;;1.50;1.40;;;;;;;5.43;100.00;99725.47;5000394;28;20418;-81
2022/02/15 03:12:38;;;;;;;1.55;1.45;;;;;;;5.45;100.00;99723.28;4997479;28;20060;-80
2022/02/15 03:15:11;;;;;;;1.63;1.52;;;;;;;5.41;100.00;99733.00;5003730;28;20054;-81
2022/02/15 03:17:45;;;;;;;1.55;1.45;;;;;;;5.52;100.00;99734.63;4998032;28;20050;-81
2022/02/15 03:20:18;;;;;;;1.30;1.30;;;;;;;5.49;100.00;99731.66;4993210;28;20494;-80
2022/02/15 03:22:52;;;;;;;1.65;1.55;;;;;;;5.53;100.00;99741.66;5006618;28;20692;-81
2022/02/15 03:25:26;;;;;;;1.42;1.40;;;;;;;5.61;100.00;99743.81;4997193;28;20054;-80
2022/02/15 03:27:55;;;;;;;1.42;1.40;;;;;;;5.48;100.00;99735.44;5000628;28;20073;-81
2022/02/15 03:30:29;;;;;;;1.23;1.23;;;;;;;5.55;100.00;99760.25;4995796;28;20121;-81
2022/02/15 03:32:58;;;;;;;1.60;1.50;;;;;;;5.69;100.00;99766.75;4998229;28;20057;-80
2022/02/15 03:35:31;;;;;;;1.30;1.30;;;;;;;5.61;100.00;99760.00;4997460;28;20057;-80
2022/02/15 03:38:10;;;;;;;;;;;;;;;5.62;100.00;99764.34;5000901;28;20064;-79
2022/02/15 03:43:43;;;;;;;1.30;1.30;;;;;;;5.54;100.00;99759.47;5000445;28;20054;-81
2022/02/15 03:46:21;;;;;;;1.20;1.20;;;;;;;5.45;100.00;99775.38;5001210;28;20070;-80
2022/02/15 03:48:55;;;;;;;1.58;1.48;;;;;;;5.45;100.00;99771.88;5000010;28;20050;-80
2022/02/15 03:51:28;;;;;;;1.55;1.45;;;;;;;5.52;100.00;99785.91;5005218;28;20054;-80
2022/02/15 03:53:57;;;;;;;1.50;1.40;;;;;;;5.55;100.00;99782.69;5002527;28;20419;-81
2022/02/15 03:56:31;;;;;;;1.35;1.33;;;;;;;5.45;100.00;99785.34;4998951;28;20053;-80
2022/02/15 03:59:06;;;;;;;1.45;1.40;;;;;;;5.62;100.00;99787.78;4994445;28;20053;-81
2022/02/15 04:01:35;;;;;;;1.60;1.50;;;;;;;5.56;100.00;99788.88;5003652;28;20066;-80
2022/02/15 04:04:09;;;;;;;1.50;1.40;;;;;;;5.52;100.00;99799.38;4998426;28;20561;-80
2022/02/15 04:06:38;;;;;;;1.40;1.38;;;;;;;5.53;100.00;99805.63;5003223;28;20054;-81
2022/02/15 04:09:13;;;;;;;1.50;1.40;;;;;;;5.61;100.00;99808.59;5002763;28;20043;-81
2022/02/15 04:11:46;;;;;;;1.33;1.33;;;;;;;5.51;100.00;99803.19;5002436;28;20068;-80
2022/02/15 04:14:24;;;;;;;1.60;1.50;;;;;;;5.53;100.00;99816.41;4998811;28;20050;-80
2022/02/15 04:16:52;;;;;;;1.63;1.52;;;;;;;5.47;100.00;99788.59;4999304;28;20065;-80
2022/02/15 04:19:21;;;;;;;1.50;1.40;;;;;;;5.52;100.00;99801.28;5000549;28;20514;-81
2022/02/15 04:21:54;;;;;;;1.70;1.60;;;;;;;5.36;100.00;99811.22;4997417;28;20049;-79
2022/02/15 04:24:30;;;;;;;1.20;1.20;;;;;;;5.21;100.00;99807.44;4999069;28;20399;-80
2022/02/15 04:27:04;;;;;;;1.30;1.30;;;;;;;5.13;100.00;99812.53;5001514;28;20053;-79
2022/02/15 04:29:37;;;;;;;1.58;1.48;;;;;;;5.04;100.00;99807.66;5003175;28;20049;-80
2022/02/15 04:32:05;;;;;;;1.27;1.27;;;;;;;5.03;100.00;99805.22;5001857;28;20084;-80
2022/02/15 04:34:39;;;;;;;1.38;1.38;;;;;;;4.99;100.00;99814.91;5000871;28;20483;-80
2022/02/15 04:37:13;;;;;;;1.70;1.60;;;;;;;4.87;100.00;99798.94;5005345;28;20061;-80
2022/02/15 04:39:47;;;;;;;1.70;1.60;;;;;;;4.86;100.00;99822.41;5004354;28;20054;-80
2022/02/15 04:42:22;;;;;;;1.70;1.60;;;;;;;4.88;100.00;99814.06;4995149;28;20058;-80
2022/02/15 04:44:58;;;;;;;1.52;1.42;;;;;;;4.85;100.00;99833.47;5004132;28;20478;-80
2022/02/15 04:47:42;;;;;;;1.95;1.85;;;;;;;4.77;100.00;99832.06;5004641;28;20522;-80
2022/02/15 04:50:17;;;;;;;1.85;1.75;;;;;;;4.85;100.00;99838.84;5006748;28;20077;-80
2022/02/15 04:52:52;;;;;;;1.90;1.80;;;;;;;4.77;100.00;99830.19;5004962;28;20874;-80
2022/02/15 04:55:26;;;;;;;1.90;1.80;;;;;;;4.69;100.00;99854.13;5007910;28;20046;-80
2022/02/15 04:58:03;;;;;;;2.08;1.98;;;;;;;4.63;100.00;99855.97;5002294;28;20051;-80
2022/02/15 05:00:45;;;;;;;2.00;1.90;;;;;;;4.56;100.00;99853.50;5001085;28;20050;-80
2022/02/15 05:03:26;;;;;;;2.15;2.05;;;;;;;4.55;100.00;99843.78;5002782;28;20050;-80
2022/02/15 05:06:00;;;;;;;2.30;2.20;;;;;;;4.58;100.00;99847.84;5000826;28;20054;-81
2022/02/15 05:08:33;;;;;;;2.33;2.22;;;;;;;4.42;100.00;99860.44;5006508;28;20046;-81
2022/02/15 05:11:09;;;;;;;2.25;2.15;;;;;;;4.54;100.00;99852.16;5000952;28;20058;-81
2022/02/15 05:13:45;;;;;;;2.30;2.20;;;;;;;4.56;100.00;99872.38;5006059;28;20506;-79
2022/02/15 05:16:30;;;;;;;2.25;2.15;;;;;;;4.56;100.00;99850.81;5003122;28;20527;-80
2022/02/15 05:19:13;;;;;;;2.42;2.33;;;;;;;4.67;100.00;99870.56;4992398;28;20058;-80
2022/02/15 05:21:54;;;;;;;2.42;2.33;;;;;;;4.85;100.00;99873.91;5003621;28;20050;-80
2022/02/15 05:24:32;;;;;;;2.72;2.53;;;;;;;4.85;100.00;99869.31;5007314;28;20490;-80
2022/02/15 05:27:07;;;;;;;2.90;2.70;;;;;;;4.82;100.00;99877.94;5001090;28;20058;-80
2022/02/15 05:29:48;;;;;;;2.30;2.20;;;;;;;4.85;100.00;99882.78;5002041;28;20057;-82
2022/02/15 05:32:47;;;;;;;3.08;2.88;;;;;;;4.92;100.00;99885.25;5002348;28;20073;-81
2022/02/15 05:35:21;;;;;;;3.20;3.00;;;;;;;4.83;100.00;99886.81;4999942;28;20053;-81
2022/02/15 05:37:56;;;;;;;3.38;3.17;;;;;;;4.86;100.00;99892.50;5005258;28;20048;-80
2022/02/15 05:40:37;;;;;;;3.55;3.35;;;;;;;4.85;100.00;99893.56;4995360;28;20061;-79
2022/02/15 05:43:14;;;;;;;3.45;3.25;;;;;;;4.87;100.00;99902.19;4996843;28;20058;-81
2022/02/15 05:45:48;;;;;;;3.63;3.42;;;;;;;4.91;100.00;99903.31;5001281;28;20045;-80
2022/02/15 05:48:26;;;;;;;4.05;3.75;;;;;;;4.87;100.00;99904.91;4999288;28;20051;-80
2022/02/15 05:51:07;;;;;;;3.33;3.13;;;;;;;4.76;100.00;99900.53;4997505;28;20060;-80
2022/02/15 05:53:55;;;;;;;4.28;3.97;;;;;;;4.87;100.00;99915.69;5002291;28;20494;-80
2022/02/15 05:56:29;;;;;;;4.35;4.05;;;;;;;4.85;100.00;99923.22;4997316;28;20073;-80
2022/02/15 05:59:15;;;;;;;4.40;4.10;;;;;;;4.87;100.00;99929.16;5016592;28;20054;-79
2022/02/15 06:02:07;;;;;;;4.38;4.07;;;;;;;4.81;100.00;99930.22;4999513;28;20065;-81
2022/02/15 06:04:59;;;;;;;4.53;4.22;;;;;;;4.87;100.00;99931.84;5001594;28;20057;-79
2022/02/15 06:07:30;;;;;;;4.88;4.57;;;;;;;4.95;100.00;99930.56;4998063;28;20523;-80
2022/02/15 06:10:19;;;;;;;4.82;4.53;;;;;;;4.98;100.00;99943.53;5004238;28;20056;-80
2022/02/15 06:12:49;;;;;;;4.50;4.20;;;;;;;4.96;100.00;99939.47;5005867;28;20433;-81
2022/02/15 06:15:28;;;;;;;;;;;;;;;5.01;100.00;99948.38;4998537;28;20853;-80
2022/02/15 06:18:10;;;;;;;4.55;4.25;;;;;;;5.06;100.00;99963.81;4998630;28;20297;-79
2022/02/15 06:20:48;;;;;;;4.65;4.35;;;;;;;4.99;100.00;99953.25;4995883;28;20434;-79
2022/02/15 06:23:22;;;;;;;4.63;4.32;;;;;;;4.90;100.00;99954.78;4995490;28;20050;-80
2022/02/15 06:26:04;;;;;;;4.68;4.38;;;;;;;4.93;100.00;99965.09;4998031;28;20053;-81
2022/02/15 06:28:58;;;;;;;4.72;4.43;;;;;;;4.92;100.00;99966.94;4994683;28;20069;-81
2022/02/15 06:31:40;;;;;;;4.65;4.35;;;;;;;4.90;100.00;99970.97;5003359;28;20053;-80
2022/02/15 06:34:11;;;;;;;5.22;4.82;;;;;;;4.94;100.00;99981.00;5003440;28;20501;-80
2022/02/15 06:36:44;;;;;;;4.93;4.63;;;;;;;4.92;100.00;99976.94;4995823;28;20047;-80
2022/02/15 06:39:14;;;;;;;5.25;4.85;;;;;;;4.97;100.00;99981.53;5005068;28;20057;-80
2022/02/15 06:41:47;;;;;;;5.35;4.95;;;;;;;4.88;100.00;99989.31;4998674;28;20049;-80
2022/02/15 06:44:21;;;;;;;5.63;5.22;;;;;;;4.76;100.00;99978.69;5000208;28;20774;-80
2022/02/15 06:46:57;;;;;;;5.35;4.95;;;;;;;4.93;100.00;100000.94;5005276;28;20168;-81
2022/02/15 06:49:32;;;;;;;5.72;5.32;;;;;;;4.88;100.00;99990.09;5000825;28;20420;-81
2022/02/15 06:52:25;;;;;;;5.90;5.50;;;;;;;4.89;100.00;99999.03;4998918;28;20058;-81
2022/02/15 06:55:16;;;;;;;5.70;5.30;;;;;;;4.92;100.00;100002.00;5004718;28;20577;-81
2022/02/15 06:57:49;;;;;;;5.47;5.07;;;;;;;4.88;100.00;100000.09;5006212;28;20053;-81
2022/02/15 07:00:22;;;;;;;5.65;5.25;;;;;;;4.77;100.00;99999.19;5004061;28;20065;-81
2022/02/15 07:02:52;;;;;;;5.93;5.53;;;;;;;4.89;100.00;100015.22;4996053;28;20054;-80
2022/02/15 07:05:25;;;;;;;5.38;4.97;;;;;;;4.79;100.00;100020.50;5000076;28;20084;-81
2022/02/15 07:07:58;;;;;;;5.15;4.78;;;;;;;4.68;100.00;100023.13;5000938;28;20445;-80
2022/02/15 07:10:32;;;;;;;5.85;5.45;;;;;;;4.56;100.00;100017.88;5001140;28;20053;-79
2022/02/15 07:13:01;;;;;;;5.53;5.13;;;;;;;4.56;100.00;100033.25;4996675;28;20509;-80
2022/02/15 07:15:38;;;;;;;5.88;5.47;;;;;;;4.45;100.00;100028.81;4997366;28;20049;-80
2022/02/15 07:18:19;;;;;;;5.95;5.55;;;;;;;4.55;100.00;100048.59;5002003;28;20406;-79
2022/02/15 07:21:22;;;;;;;5.53;5.13;;;;;;;4.51;100.00;100054.75;4998023;28;20068;-80
2022/02/15 07:24:13;;;;;;;6.00;5.60;;;;;;;4.57;100.00;100043.78;4996529;28;20069;-81
2022/02/15 07:27:15;;;;;;;6.20;5.80;;;;;;;4.58;100.00;100045.41;5001425;28;20066;-81
2022/02/15 07:29:53;;;;;;;6.18;5.78;;;;;;;4.67;100.00;100053.00;5001416;28;20057;-81
2022/02/15 07:32:31;;;;;;;6.40;5.95;;;;;;;4.69;100.00;100048.19;5003362;28;20045;-80
2022/02/15 07:35:01;;;;;;;6.72;6.22;;;;;;;4.82;100.00;100055.84;5003215;28;20650;-80
2022/02/15 07:37:34;;;;;;;7.22;6.72;;;;;;;4.82;100.00;100060.41;5000855;28;20076;-80
2022/02/15 07:40:08;;;;;;;6.88;6.38;;;;;;;4.94;100.00;100064.59;4997174;28;20056;-80
2022/02/15 07:42:41;;;;;;;7.50;7.00;;;;;;;4.97;100.00;100075.91;5000214;28;20045;-80
2022/02/15 07:45:18;;;;;;;6.72;6.22;;;;;;;4.91;100.00;100081.25;5005808;28;20049;-81
2022/02/15 07:47:47;;;;;;;6.72;6.22;;;;;;;4.96;100.00;100083.22;5000811;28;20094;-80
2022/02/15 07:50:23;;;;;;;7.05;6.55;;;;;;;5.04;100.00;100092.69;4998831;28;20072;-80
2022/02/15 07:52:53;;;;;;;7.15;6.65;;;;;;;5.05;100.00;100089.72;4999221;28;20049;-80
2022/02/15 07:55:26;;;;;;;6.55;6.05;;;;;;;5.14;100.00;100087.38;5001053;28;20050;-80
2022/02/15 07:57:59;;;;;;;6.65;6.15;;;;;;;5.16;100.00;100090.63;4999954;28;20514;-80
2022/02/15 08:00:32;;;;;;;6.70;6.20;;;;;;;5.15;100.00;100090.88;4995290;28;20495;-79
2022/02/15 08:03:06;;;;;;;7.05;6.55;;;;;;;5.06;100.00;100090.56;5003949;28;20050;-80
2022/02/15 08:05:36;;;;;;;7.20;6.70;;;;;;;5.12;100.00;100097.59;5002678;28;20042;-80
2022/02/15 08:08:13;;;;;;;6.70;6.20;;;;;;;5.13;100.00;100099.25;5008426;28;20058;-80
2022/02/15 08:10:47;;;;;;;7.38;6.88;;;;;;;5.20;100.00;100094.44;5003485;28;20417;-80
2022/02/15 08:13:21;;;;;;;7.50;7.00;;;;;;;5.16;100.00;100092.53;5008667;28;20038;-79
2022/02/15 08:15:51;;;;;;;6.95;6.45;;;;;;;5.11;100.00;100094.13;5018396;28;20500;-82
2022/02/15 08:18:26;;;;;;;6.80;6.30;;;;;;;5.24;100.00;100106.34;4982869;28;20510;-80
2022/02/15 08:21:01;;;;;;;6.90;6.40;;;;;;;5.19;100.00;100109.03;4985278;28;20046;-79
2022/02/15 08:23:36;;;;;;;7.25;6.75;;;;;;;5.15;100.00;100109.78;4990128;28;20054;-80
2022/02/15 08:26:09;;;;;;;7.15;6.65;;;;;;;5.23;100.00;100107.44;4996731;28;20061;-81
2022/02/15 08:28:44;;;;;;;8.38;7.78;;;;;;;5.30;100.00;100111.78;4989025;28;20054;-80
2022/02/15 08:31:17;;;;;;;7.75;7.25;;;;;;;5.32;100.00;100112.31;4985089;28;20081;-80
2022/02/15 08:33:50;;;;;;;7.07;6.57;;;;;;;5.25;100.00;100099.88;4985845;28;20057;-79
2022/02/15 08:36:25;;;;;;;7.10;6.60;;;;;;;5.36;100.00;100116.97;4984368;28;20050;-82
2022/02/15 08:38:58;;;;;;;7.35;6.85;;;;;;;5.38;100.00;100133.69;4987468;28;20050;-80
2022/02/15 08:41:26;;;;;;;6.78;6.28;;;;;;;5.29;100.00;100121.78;4985958;28;20058;-81
2022/02/15 08:43:59;;;;;;;7.40;6.90;;;;;;;5.47;100.00;100131.34;4992277;28;20049;-80
2022/02/15 08:46:33;;;;;;;6.53;6.03;;;;;;;5.39;100.00;100135.31;4990592;28;20487;-81
2022/02/15 08:49:06;;;;;;;7.35;6.85;;;;;;;5.31;100.00;100138.50;4986494;28;20735;-80
2022/02/15 08:51:41;;;;;;;7.90;7.35;;;;;;;5.23;100.00;100142.50;4984963;28;20421;-80
2022/02/15 08:54:14;;;;;;;7.75;7.22;;;;;;;5.10;100.00;100138.31;4988706;28;21368;-80
2022/02/15 08:56:42;;;;;;;8.32;7.72;;;;;;;4.99;100.00;100139.31;4988009;28;20082;-81
2022/02/15 08:59:15;;;;;;;9.18;8.57;;;;;;;4.90;100.00;100140.84;4988430;28;20057;-79
2022/02/15 09:01:50;;;;;;;9.07;8.48;;;;;;;4.93;100.00;100138.47;4985981;28;20054;-80
2022/02/15 09:04:18;;;;;;;9.15;8.55;;;;;;;4.95;100.00;100143.59;4988954;28;20059;-79
2022/02/15 09:06:54;;;;;;;11.00;10.30;;;;;;;4.90;100.00;100141.66;4985497;28;20054;-80
2022/02/15 09:09:27;;;;;;;10.25;9.55;;;;;;;4.88;100.00;100141.09;4984352;28;20061;-80
2022/02/15 09:12:01;;;;;;;10.95;10.25;;;;;;;4.86;100.00;100137.03;4990308;28;20054;-81
2022/02/15 09:14:34;;;;;;;11.55;10.80;;;;;;;4.96;100.00;100133.59;4993464;28;20486;-80
2022/02/15 09:17:08;;;;;;;11.85;11.05;;;;;;;4.94;100.00;100139.25;4995806;28;20060;-81
2022/02/15 09:19:41;;;;;;;12.10;11.30;;;;;;;5.04;100.00;100147.47;4991990;28;20510;-81
2022/02/15 09:22:17;;;;;;;11.98;11.18;;;;;;;5.07;100.00;100155.03;4989194;28;20375;-82
2022/02/15 09:24:52;;;;;;;12.75;11.95;;;;;;;5.20;100.00;100158.38;4991643;28;20522;-82
2022/02/15 09:27:26;;;;;;;11.18;10.48;;;;;;;5.23;100.00;100164.09;4995252;28;20088;-80
2022/02/15 09:29:59;;;;;;;10.80;10.10;;;;;;;5.22;100.00;100164.31;4988357;28;20627;-82
2022/02/15 09:32:32;;;;;;;12.10;11.30;;;;;;;5.18;100.00;100165.91;4985773;28;20046;-81
2022/02/15 09:35:06;;;;;;;10.52;9.82;;;;;;;5.32;100.00;100168.97;4992382;28;20046;-81
2022/02/15 09:37:42;;;;;;;12.27;11.48;;;;;;;5.27;100.00;100170.59;4988643;28;20064;-82
2022/02/15 09:40:16;;;;;;;10.85;10.15;;;;;;;5.43;100.00;100176.09;4990601;28;20641;-80
2022/02/15 09:42:45;;;;;;;12.02;11.23;;;;;;;5.51;100.00;100178.34;4979599;28;20064;-80
2022/02/15 09:45:18;;;;;;;10.27;9.57;;;;;;;5.59;100.00;100183.25;4987979;28;20062;-81
2022/02/15 09:47:54;;;;;;;11.38;10.65;;;;;;;5.76;100.00;100180.41;4992348;28;20053;-81
2022/02/15 09:50:27;;;;;;;11.30;10.60;;;;;;;5.89;100.00;100176.41;4988060;28;20061;-81
2022/02/15 09:52:58;;;;;;;11.63;10.85;;;;;;;5.79;100.00;100179.88;4990708;28;20417;-81
2022/02/15 09:55:27;;;;;;;11.10;10.40;;;;;;;5.82;100.00;100185.84;4990273;28;20049;-80
2022/02/15 09:58:00;;;;;;;11.43;10.70;;;;;;;5.89;100.00;100189.91;4993039;28;20037;-81
2022/02/15 10:00:34;;;;;;;10.90;10.20;;;;;;;5.92;100.00;100189.41;4985335;28;20065;-81
2022/02/15 10:03:08;;;;;;;10.27;9.57;;;;;;;6.03;100.00;100184.09;4990354;28;20057;-81
2022/02/15 10:05:47;;;;;;;10.73;10.02;;;;;;;6.18;100.00;100186.06;4991353;28;20048;-80
2022/02/15 10:08:25;;;;;;;9.88;9.18;;;;;;;6.28;100.00;100186.94;4992013;28;20057;-81
2022/02/15 10:11:10;;;;;;;9.45;8.85;;;;;;;6.39;100.00;100203.19;4992461;28;20054;-81
2022/02/15 10:13:43;;;;;;;7.63;7.13;;;;;;;6.34;100.00;100197.75;4995606;28;20062;-80
2022/02/15 10:16:16;;;;;;;7.05;6.55;;;;;;;6.43;100.00;100196.19;4992139;28;20054;-81
2022/02/15 10:18:44;;;;;;;6.55;6.05;;;;;;;6.39;100.00;100200.47;4965758;28;20065;-81
2022/02/15 10:21:18;;;;;;;6.70;6.20;;;;;;;6.42;100.00;100191.84;4993145;28;20057;-81
2022/02/15 10:23:52;;;;;;;6.05;5.65;;;;;;;6.43;100.00;100198.88;4997122;28;20037;-80
2022/02/15 10:26:28;;;;;;;5.35;4.95;;;;;;;6.34;100.00;100206.69;4996607;28;20061;-81
2022/02/15 10:29:01;;;;;;;4.40;4.10;;;;;;;6.31;100.00;100199.09;4997145;28;20998;-81
2022/02/15 10:31:39;;;;;;;4.20;3.90;;;;;;;6.31;100.00;100201.78;4991010;28;20054;-80
2022/02/15 10:34:07;;;;;;;4.72;4.43;;;;;;;6.57;100.00;100210.84;4990951;28;20494;-80
2022/02/15 10:36:40;;;;;;;3.45;3.25;;;;;;;6.66;100.00;100205.72;4997525;28;20057;-80
2022/02/15 10:39:14;;;;;;;3.55;3.35;;;;;;;6.88;100.00;100212.84;4990658;28;20058;-81
2022/02/15 10:41:48;;;;;;;3.38;3.17;;;;;;;6.87;100.00;100203.09;4997328;28;20046;-81
2022/02/15 10:44:21;;;;;;;2.35;2.25;;;;;;;6.70;100.00;100201.41;4995536;28;20041;-82
2022/02/15 10:46:56;;;;;;;2.40;2.30;;;;;;;6.73;100.00;100211.69;4994575;28;20725;-80
2022/02/15 10:49:31;;;;;;;1.98;1.88;;;;;;;6.64;100.00;100203.28;4994442;28;20045;-81
2022/02/15 10:52:05;;;;;;;1.95;1.85;;;;;;;6.63;100.00;100207.06;4994523;28;20413;-80
2022/02/15 10:54:40;;;;;;;1.98;1.88;;;;;;;6.62;100.00;100212.75;4991314;28;20046;-82
2022/02/15 10:57:12;;;;;;;1.88;1.77;;;;;;;6.61;100.00;100221.94;4988458;28;20084;-81
2022/02/15 10:59:47;;;;;;;1.95;1.85;;;;;;;6.64;100.00;100210.56;4990891;28;20053;-81
2022/02/15 11:02:23;;;;;;;1.90;1.80;;;;;;;6.63;100.00;100215.19;4981638;28;20054;-81
2022/02/15 11:05:00;;;;;;;2.00;1.90;;;;;;;6.59;100.00;100205.19;4977730;28;20159;-81
2022/02/15 11:07:31;;;;;;;1.98;1.88;;;;;;;6.64;100.00;100215.97;4980262;28;20501;-80
2022/02/15 11:10:15;;;;;;;1.90;1.80;;;;;;;6.70;100.00;100216.81;4983530;28;20057;-82
2022/02/15 11:12:50;;;;;;;1.60;1.50;;;;;;;6.68;100.00;100211.69;4988106;28;20054;-81
2022/02/15 11:15:24;;;;;;;1.30;1.30;;;;;;;6.74;100.00;100223.31;4979748;28;20426;-81
2022/02/15 11:17:58;;;;;;;1.40;1.35;;;;;;;6.96;100.00;100225.81;4946562;28;20325;-81
2022/02/15 11:20:51;;;;;;;1.65;1.55;;;;;;;7.00;100.00;100218.78;4973315;28;21112;-81
2022/02/15 11:23:25;;;;;;;1.50;1.40;;;;;;;7.14;100.00;100229.94;4974947;28;20628;-81
2022/02/15 11:26:10;;;;;;;1.20;1.20;;;;;;;7.12;100.00;100226.69;4971978;28;20046;-81
2022/02/15 11:28:47;;;;;;;1.00;1.00;;;;;;;7.20;100.00;100231.56;4973775;28;20061;-80
2022/02/15 11:31:28;;;;;;;0.90;0.90;;;;;;;6.98;100.00;100231.78;4985085;28;20333;-81
2022/02/15 11:34:03;;;;;;;1.00;1.00;;;;;;;6.88;100.00;100240.69;4976778;28;20048;-80
2022/02/15 11:36:46;;;;;;;0.80;0.80;;;;;;;6.79;100.00;100236.88;4974571;28;20403;-81
2022/02/15 11:39:22;;;;;;;0.90;0.90;;;;;;;6.73;100.00;100235.25;4984008;28;20141;-81
2022/02/15 11:41:59;;;;;;;0.90;0.90;;;;;;;6.71;100.00;100240.09;4983237;28;20049;-80
2022/02/15 11:44:34;;;;;;;0.90;0.90;;;;;;;6.45;100.00;100224.56;4982838;28;20058;-81
2022/02/15 11:47:16;;;;;;;0.80;0.80;;;;;;;6.48;100.00;100236.75;4980125;28;20080;-81
2022/02/15 11:49:50;;;;;;;0.90;0.90;;;;;;;6.32;100.00;100226.94;4977313;28;20061;-80
2022/02/15 11:52:19;;;;;;;0.80;0.80;;;;;;;6.43;100.00;100240.22;4983992;28;20061;-81
2022/02/15 11:54:47;;;;;;;0.90;0.90;;;;;;;6.48;100.00;100225.94;4989967;28;20053;-80
2022/02/15 11:57:17;;;;;;;0.88;0.88;;;;;;;6.53;100.00;100225.97;4982530;28;20053;-81
2022/02/15 11:59:52;;;;;;;0.90;0.90;;;;;;;6.64;100.00;100238.44;4985897;28;20058;-82
2022/02/15 12:02:25;;;;;;;0.80;0.80;;;;;;;6.56;100.00;100238.13;4984508;28;20050;-81
2022/02/15 12:04:59;;;;;;;0.80;0.80;;;;;;;6.62;100.00;100232.47;4982509;28;20513;-81
2022/02/15 12:07:34;;;;;;;0.80;0.80;;;;;;;6.73;100.00;100222.50;4985242;28;20050;-81